createdAt,value
2018-04-29T00:00:00.757Z,72.40
2018-04-29T00:02:33.263Z,72.20
2018-04-29T00:05:05.841Z,72.00
2018-04-29T00:07:38.497Z,72.20
2018-04-29T00:10:11.825Z,72.20
2018-04-29T00:12:44.227Z,72.20
2018-04-29T00:15:16.778Z,72.70
2018-04-29T00:17:49.453Z,72.80
2018-04-29T00:20:22.017Z,73.00
2018-04-29T00:22:54.445Z,73.10
2018-04-29T00:25:27.822Z,73.60
2018-04-29T00:28:01.207Z,74.20
2018-04-29T00:30:33.713Z,74.20
2018-04-29T00:33:06.353Z,73.60
2018-04-29T00:35:39.030Z,72.70
2018-04-29T00:40:50.930Z,72.40
2018-04-29T00:43:23.355Z,73.30
2018-04-29T00:45:56.050Z,73.40
2018-04-29T00:48:28.642Z,73.80
2018-04-29T00:51:01.072Z,73.70
2018-04-29T00:53:33.622Z,73.70
2018-04-29T00:56:07.003Z,74.50
2018-04-29T00:58:40.139Z,74.10
2018-04-29T01:01:12.724Z,74.10
2018-04-29T01:03:45.348Z,74.30
2018-04-29T01:06:18.030Z,74.10
2018-04-29T01:08:50.782Z,73.60
2018-04-29T01:11:24.037Z,73.60
2018-04-29T01:13:56.534Z,73.60
2018-04-29T01:16:29.842Z,73.10
2018-04-29T01:19:02.217Z,73.40
2018-04-29T01:21:35.539Z,73.00
2018-04-29T01:24:08.868Z,72.30
2018-04-29T01:26:42.034Z,72.50
2018-04-29T01:29:15.222Z,72.90
2018-04-29T01:31:47.596Z,72.80
2018-04-29T01:34:19.909Z,72.80
2018-04-29T01:36:52.420Z,73.20
2018-04-29T01:39:25.038Z,73.30
2018-04-29T01:41:57.647Z,73.60
2018-04-29T01:44:30.069Z,73.40
2018-04-29T01:47:02.487Z,73.40
2018-04-29T01:49:35.118Z,73.40
2018-04-29T01:52:07.932Z,73.60
2018-04-29T01:54:40.652Z,73.90
2018-04-29T01:57:13.429Z,73.80
2018-04-29T01:59:46.855Z,74.20
2018-04-29T02:02:19.409Z,74.10
2018-04-29T02:04:51.890Z,74.80
2018-04-29T02:07:24.441Z,74.80
2018-04-29T02:09:56.844Z,75.00
2018-04-29T02:12:29.242Z,75.60
2018-04-29T02:15:01.839Z,75.90
2018-04-29T02:17:34.322Z,76.40
2018-04-29T02:20:06.803Z,77.20
2018-04-29T02:22:39.300Z,77.50
2018-04-29T02:25:11.800Z,77.20
2018-04-29T02:27:44.233Z,77.00
2018-04-29T02:30:16.790Z,77.00
2018-04-29T02:32:50.024Z,77.70
2018-04-29T02:35:22.595Z,77.70
2018-04-29T02:37:55.119Z,78.20
2018-04-29T02:40:27.813Z,77.90
2018-04-29T02:43:00.305Z,77.90
2018-04-29T02:45:33.006Z,77.70
2018-04-29T02:48:05.516Z,78.10
2018-04-29T02:50:38.736Z,78.20
2018-04-29T02:53:11.124Z,79.00
2018-04-29T02:55:43.752Z,79.10
2018-04-29T02:58:17.093Z,78.80
2018-04-29T03:00:49.711Z,78.80
2018-04-29T03:03:22.189Z,78.60
2018-04-29T03:05:55.111Z,78.90
2018-04-29T03:08:27.756Z,79.00
2018-04-29T03:11:00.369Z,78.90
2018-04-29T03:13:33.649Z,79.10
2018-04-29T03:16:06.304Z,79.20
2018-04-29T03:18:38.878Z,79.10
2018-04-29T03:21:11.377Z,79.30
2018-04-29T03:23:43.736Z,79.60
2018-04-29T03:26:16.115Z,79.60
2018-04-29T03:28:48.553Z,79.60
2018-04-29T03:31:21.858Z,80.00
2018-04-29T03:33:55.035Z,79.90
2018-04-29T03:36:27.737Z,79.90
2018-04-29T03:39:00.274Z,80.40
2018-04-29T03:41:33.198Z,80.00
2018-04-29T03:44:06.600Z,80.40
2018-04-29T03:46:39.015Z,80.30
2018-04-29T03:49:11.627Z,79.70
2018-04-29T03:51:44.265Z,80.50
2018-04-29T03:54:17.556Z,81.00
2018-04-29T03:56:50.219Z,81.00
2018-04-29T03:59:35.153Z,80.90
2018-04-29T04:02:19.980Z,81.40
2018-04-29T04:04:52.499Z,81.50
2018-04-29T04:07:24.930Z,81.60
2018-04-29T04:09:57.274Z,81.60
2018-04-29T04:12:29.952Z,81.40
2018-04-29T04:15:03.271Z,81.40
2018-04-29T04:17:36.510Z,81.20
2018-04-29T04:20:09.013Z,81.10
2018-04-29T04:22:41.704Z,81.20
2018-04-29T04:25:14.203Z,81.80
2018-04-29T04:27:46.640Z,82.00
2018-04-29T04:30:19.828Z,82.40
2018-04-29T04:32:52.445Z,82.40
2018-04-29T04:35:25.785Z,82.40
2018-04-29T04:37:58.487Z,82.40
2018-04-29T04:40:31.143Z,82.20
2018-04-29T04:43:03.713Z,82.60
2018-04-29T04:45:36.467Z,82.40
2018-04-29T04:48:09.058Z,82.20
2018-04-29T04:50:42.211Z,81.50
2018-04-29T04:53:15.395Z,81.90
2018-04-29T04:55:49.144Z,82.10
2018-04-29T04:58:21.644Z,82.00
2018-04-29T05:00:55.373Z,80.40
2018-04-29T05:03:27.885Z,80.30
2018-04-29T05:06:00.701Z,79.60
2018-04-29T05:08:34.752Z,79.30
2018-04-29T05:11:12.535Z,79.30
2018-04-29T05:13:45.125Z,78.50
2018-04-29T05:16:17.728Z,77.40
2018-04-29T05:18:50.206Z,76.20
2018-04-29T05:21:23.433Z,75.80
2018-04-29T05:23:56.739Z,76.20
2018-04-29T05:26:29.245Z,76.10
2018-04-29T05:29:01.681Z,76.20
2018-04-29T05:31:34.315Z,76.30
2018-04-29T05:34:06.983Z,76.60
2018-04-29T05:36:40.185Z,76.10
2018-04-29T05:39:13.495Z,76.10
2018-04-29T05:41:47.048Z,76.10
2018-04-29T05:44:20.548Z,74.20
2018-04-29T05:46:53.044Z,74.20
2018-04-29T05:49:25.727Z,75.10
2018-04-29T05:51:59.085Z,75.00
2018-04-29T05:54:31.577Z,75.00
2018-04-29T05:57:04.465Z,74.30
2018-04-29T05:59:37.361Z,74.90
2018-04-29T06:02:10.535Z,74.80
2018-04-29T06:04:42.991Z,74.80
2018-04-29T06:07:15.490Z,73.90
2018-04-29T06:09:49.395Z,73.10
2018-04-29T06:12:22.593Z,73.50
2018-04-29T06:14:55.285Z,73.50
2018-04-29T06:17:27.857Z,73.10
2018-04-29T06:20:00.347Z,73.50
2018-04-29T06:22:32.981Z,74.00
2018-04-29T06:25:06.986Z,73.70
2018-04-29T06:27:39.636Z,73.70
2018-04-29T06:30:12.316Z,73.70
2018-04-29T06:32:44.949Z,73.30
2018-04-29T06:35:17.673Z,73.10
2018-04-29T06:37:50.269Z,73.20
2018-04-29T06:40:23.481Z,72.40
2018-04-29T06:42:56.660Z,72.20
2018-04-29T06:45:29.061Z,72.20
2018-04-29T06:48:01.548Z,71.50
2018-04-29T06:50:34.120Z,70.50
2018-04-29T06:53:06.792Z,71.30
2018-04-29T06:55:40.179Z,69.40
2018-04-29T06:58:13.350Z,67.50
2018-04-29T07:00:45.893Z,67.40
2018-04-29T07:03:18.416Z,68.20
2018-04-29T07:05:51.096Z,68.00
2018-04-29T07:08:24.795Z,66.60
2018-04-29T07:10:58.315Z,66.20
2018-04-29T07:13:31.612Z,65.90
2018-04-29T07:16:04.236Z,65.90
2018-04-29T07:18:36.672Z,64.80
2018-04-29T07:21:09.381Z,64.50
2018-04-29T07:23:44.750Z,64.30
2018-04-29T07:26:17.465Z,64.70
2018-04-29T07:28:51.389Z,63.50
2018-04-29T07:31:24.031Z,63.50
2018-04-29T07:33:56.712Z,63.40
2018-04-29T07:36:29.307Z,62.90
2018-04-29T07:39:02.084Z,62.10
2018-04-29T07:41:34.676Z,60.30
2018-04-29T07:44:07.484Z,60.80
2018-04-29T07:46:39.917Z,60.80
2018-04-29T07:49:12.836Z,59.90
2018-04-29T07:51:45.467Z,59.10
2018-04-29T07:54:18.242Z,58.20
2018-04-29T07:56:50.840Z,57.70
2018-04-29T07:59:23.667Z,57.70
2018-04-29T08:01:56.233Z,57.20
2018-04-29T08:04:28.979Z,56.10
2018-04-29T08:07:02.312Z,56.80
2018-04-29T08:09:34.964Z,56.70
2018-04-29T08:12:07.600Z,56.90
2018-04-29T08:14:40.208Z,56.90
2018-04-29T08:17:12.613Z,56.20
2018-04-29T08:19:45.273Z,56.50
2018-04-29T08:22:17.882Z,56.20
2018-04-29T08:24:50.672Z,56.00
2018-04-29T08:27:23.214Z,54.60
2018-04-29T08:29:56.108Z,54.80
2018-04-29T08:32:29.412Z,54.10
2018-04-29T08:35:02.892Z,53.60
2018-04-29T08:37:35.532Z,53.60
2018-04-29T08:40:08.117Z,54.60
2018-04-29T08:42:40.842Z,53.80
2018-04-29T08:45:13.319Z,53.80
2018-04-29T08:47:46.018Z,54.70
2018-04-29T08:50:18.707Z,54.20
2018-04-29T08:52:51.205Z,55.70
2018-04-29T08:55:24.678Z,56.10
2018-04-29T08:57:57.279Z,56.10
2018-04-29T09:00:30.069Z,55.10
2018-04-29T09:03:02.794Z,54.90
2018-04-29T09:05:35.464Z,55.10
2018-04-29T09:08:07.967Z,55.40
2018-04-29T09:10:40.647Z,55.10
2018-04-29T09:13:13.284Z,55.80
2018-04-29T09:15:46.037Z,55.70
2018-04-29T09:18:18.633Z,56.40
2018-04-29T09:20:51.067Z,56.10
2018-04-29T09:23:23.831Z,56.10
2018-04-29T09:25:56.522Z,56.00
2018-04-29T09:28:29.247Z,56.60
2018-04-29T09:31:02.738Z,57.40
2018-04-29T09:33:35.408Z,57.40
2018-04-29T09:36:08.028Z,57.70
2018-04-29T09:38:40.645Z,59.50
2018-04-29T09:41:13.309Z,59.20
2018-04-29T09:43:46.027Z,59.10
2018-04-29T09:46:18.918Z,60.70
2018-04-29T09:48:51.523Z,59.90
2018-04-29T09:51:24.084Z,60.40
2018-04-29T09:53:56.668Z,60.50
2018-04-29T09:56:29.269Z,60.80
2018-04-29T09:59:02.621Z,59.40
2018-04-29T10:01:35.481Z,59.40
2018-04-29T10:04:08.062Z,59.40
2018-04-29T10:06:40.665Z,58.20
2018-04-29T10:09:13.860Z,58.70
2018-04-29T10:11:46.465Z,58.70
2018-04-29T10:14:19.169Z,57.40
2018-04-29T10:16:51.732Z,56.80
2018-04-29T10:19:31.246Z,55.80
2018-04-29T10:22:03.910Z,54.90
2018-04-29T10:24:37.268Z,55.50
2018-04-29T10:27:10.087Z,55.50
2018-04-29T10:29:42.625Z,55.20
2018-04-29T10:32:15.260Z,55.70
2018-04-29T10:34:47.963Z,55.90
2018-04-29T10:37:20.618Z,55.90
2018-04-29T10:39:53.101Z,56.00
2018-04-29T10:42:26.560Z,56.50
2018-04-29T10:44:59.165Z,56.50
2018-04-29T10:47:32.440Z,56.70
2018-04-29T10:50:05.873Z,56.80
2018-04-29T10:52:39.291Z,56.80
2018-04-29T10:55:12.027Z,56.80
2018-04-29T10:57:44.581Z,54.80
2018-04-29T11:00:17.890Z,55.30
2018-04-29T11:02:50.429Z,55.30
2018-04-29T11:05:23.043Z,55.30
2018-04-29T11:07:55.669Z,54.60
2018-04-29T11:10:28.246Z,53.50
2018-04-29T11:13:00.883Z,54.40
2018-04-29T11:15:33.486Z,56.50
2018-04-29T11:18:06.940Z,56.00
2018-04-29T11:20:39.416Z,54.20
2018-04-29T11:23:12.470Z,54.70
2018-04-29T11:25:45.178Z,54.70
2018-04-29T11:28:17.719Z,55.10
2018-04-29T11:30:50.254Z,54.40
2018-04-29T11:33:29.834Z,55.00
2018-04-29T11:36:02.873Z,55.10
2018-04-29T11:38:35.403Z,55.30
2018-04-29T11:41:08.652Z,56.10
2018-04-29T11:43:41.405Z,56.00
2018-04-29T11:46:14.156Z,55.50
2018-04-29T11:48:46.961Z,54.60
2018-04-29T11:51:19.531Z,53.80
2018-04-29T11:53:52.021Z,54.20
2018-04-29T11:56:24.945Z,54.50
2018-04-29T11:58:58.150Z,54.10
2018-04-29T12:01:30.825Z,54.10
2018-04-29T12:04:03.492Z,53.50
2018-04-29T12:06:35.993Z,54.20
2018-04-29T12:09:08.936Z,54.20
2018-04-29T12:11:41.502Z,53.50
2018-04-29T12:14:14.260Z,54.70
2018-04-29T12:16:46.897Z,53.80
2018-04-29T12:19:20.334Z,53.00
2018-04-29T12:21:52.798Z,53.00
2018-04-29T12:24:26.298Z,52.80
2018-04-29T12:26:58.790Z,52.80
2018-04-29T12:29:31.500Z,52.60
2018-04-29T12:32:04.117Z,53.30
2018-04-29T12:34:37.402Z,52.90
2018-04-29T12:37:10.092Z,52.90
2018-04-29T12:39:42.673Z,54.40
2018-04-29T12:42:15.416Z,52.90
2018-04-29T12:44:48.107Z,52.10
2018-04-29T12:47:21.014Z,51.70
2018-04-29T12:49:53.609Z,51.10
2018-04-29T12:52:26.203Z,52.20
2018-04-29T12:54:58.919Z,50.70
2018-04-29T12:57:32.296Z,52.20
2018-04-29T13:00:05.236Z,52.20
2018-04-29T13:02:37.899Z,50.80
2018-04-29T13:05:11.242Z,50.30
2018-04-29T13:07:43.919Z,50.30
2018-04-29T13:10:16.579Z,51.90
2018-04-29T13:12:49.412Z,52.00
2018-04-29T13:15:22.137Z,52.40
2018-04-29T13:17:54.685Z,52.30
2018-04-29T13:20:27.289Z,51.60
2018-04-29T13:22:59.962Z,52.20
2018-04-29T13:25:32.820Z,51.70
2018-04-29T13:28:05.463Z,52.00
2018-04-29T13:30:38.032Z,53.10
2018-04-29T13:33:10.883Z,52.70
2018-04-29T13:35:43.640Z,52.20
2018-04-29T13:38:16.254Z,52.50
2018-04-29T13:40:48.721Z,53.50
2018-04-29T13:43:21.687Z,53.60
2018-04-29T13:45:55.840Z,54.60
2018-04-29T13:48:28.563Z,54.50
2018-04-29T13:51:01.138Z,58.80
2018-04-29T13:53:34.866Z,69.90
2018-04-29T13:56:07.622Z,69.90
2018-04-29T13:58:41.081Z,75.70
2018-04-29T14:01:13.701Z,75.60
2018-04-29T14:03:46.220Z,78.70
2018-04-29T14:06:20.300Z,84.60
2018-04-29T14:08:54.511Z,84.50
2018-04-29T14:11:27.333Z,85.70
2018-04-29T14:14:00.476Z,87.90
2018-04-29T14:16:33.025Z,87.70
2018-04-29T14:19:05.531Z,87.80
2018-04-29T14:21:38.422Z,85.80
2018-04-29T14:24:11.097Z,85.70
2018-04-29T14:26:43.875Z,86.00
2018-04-29T14:29:16.570Z,85.90
2018-04-29T14:31:49.157Z,84.50
2018-04-29T14:34:21.749Z,83.10
2018-04-29T14:36:55.049Z,81.50
2018-04-29T14:39:27.928Z,81.40
2018-04-29T14:42:01.223Z,81.80
2018-04-29T14:44:33.754Z,81.70
2018-04-29T14:47:06.468Z,82.00
2018-04-29T14:49:39.280Z,82.00
2018-04-29T14:52:11.791Z,82.40
2018-04-29T14:54:44.301Z,83.20
2018-04-29T14:57:16.922Z,84.30
2018-04-29T14:59:49.577Z,83.80
2018-04-29T15:02:22.271Z,83.80
2018-04-29T15:04:55.213Z,83.10
2018-04-29T15:07:28.777Z,81.60
2018-04-29T15:10:01.436Z,81.50
2018-04-29T15:12:34.015Z,81.20
2018-04-29T15:15:06.680Z,81.30
2018-04-29T15:17:39.471Z,80.80
2018-04-29T15:20:12.954Z,80.80
2018-04-29T15:22:45.375Z,80.70
2018-04-29T15:25:18.340Z,80.70
2018-04-29T15:27:51.286Z,80.60
2018-04-29T15:30:23.787Z,81.60
2018-04-29T15:32:57.256Z,81.80
2018-04-29T15:35:30.027Z,81.80
2018-04-29T15:38:02.587Z,81.00
2018-04-29T15:40:35.656Z,80.50
2018-04-29T15:43:08.849Z,80.20
2018-04-29T15:45:41.316Z,79.60
2018-04-29T15:48:14.689Z,79.00
2018-04-29T15:50:47.132Z,79.00
2018-04-29T15:53:20.497Z,74.60
2018-04-29T15:55:53.117Z,75.20
2018-04-29T15:58:25.836Z,75.60
2018-04-29T16:00:58.535Z,75.90
2018-04-29T16:03:31.617Z,76.00
2018-04-29T16:06:04.357Z,76.80
2018-04-29T16:08:36.861Z,74.60
2018-04-29T16:11:09.548Z,75.40
2018-04-29T16:13:42.057Z,75.30
2018-04-29T16:16:16.399Z,72.50
2018-04-29T16:18:48.822Z,72.50
2018-04-29T16:31:06.595Z,72.00
2018-04-29T16:33:39.237Z,66.30
2018-04-29T16:36:12.636Z,60.90
2018-04-29T16:38:45.560Z,60.80
2018-04-29T16:41:18.826Z,58.80
2018-04-29T16:43:51.397Z,58.70
2018-04-29T16:46:23.885Z,59.80
2018-04-29T16:48:57.393Z,60.40
2018-04-29T16:51:30.693Z,62.60
2018-04-29T16:54:03.440Z,62.60
2018-04-29T16:56:36.147Z,63.80
2018-04-29T16:59:08.840Z,65.10
2018-04-29T17:01:41.498Z,66.70
2018-04-29T17:04:15.071Z,67.90
2018-04-29T17:06:48.406Z,68.20
2018-04-29T17:09:21.274Z,68.10
2018-04-29T17:11:54.717Z,68.00
2018-04-29T17:14:27.659Z,67.90
2018-04-29T17:17:01.922Z,67.30
2018-04-29T17:19:34.631Z,67.30
2018-04-29T17:22:07.240Z,68.30
2018-04-29T17:24:39.943Z,69.40
2018-04-29T17:27:12.625Z,68.90
2018-04-29T17:29:45.257Z,69.50
2018-04-29T17:32:17.918Z,70.20
2018-04-29T17:34:50.408Z,70.60
2018-04-29T17:37:23.295Z,71.40
2018-04-29T17:39:56.744Z,71.40
2018-04-29T17:42:29.557Z,71.40
2018-04-29T17:45:02.355Z,72.10
2018-04-29T17:47:34.954Z,72.20
2018-04-29T17:50:08.030Z,72.20
2018-04-29T17:52:41.316Z,71.90
2018-04-29T17:55:13.971Z,71.50
2018-04-29T17:57:46.863Z,71.70
2018-04-29T18:00:19.572Z,72.20
2018-04-29T18:02:52.085Z,73.10
2018-04-29T18:05:24.789Z,73.20
2018-04-29T18:07:57.415Z,73.20
2018-04-29T18:10:30.472Z,74.10
2018-04-29T18:13:02.960Z,74.30
2018-04-29T18:15:37.240Z,74.80
2018-04-29T18:18:09.767Z,74.80
2018-04-29T18:20:43.238Z,74.90
2018-04-29T18:23:20.190Z,74.80
2018-04-29T18:25:52.797Z,76.20
2018-04-29T18:28:25.742Z,76.50
2018-04-29T18:30:58.468Z,76.10
2018-04-29T18:33:31.513Z,76.00
2018-04-29T18:36:05.224Z,76.20
2018-04-29T18:38:39.177Z,76.10
2018-04-29T18:41:12.726Z,76.60
2018-04-29T18:43:46.057Z,77.00
2018-04-29T18:46:18.893Z,76.70
2018-04-29T18:48:52.155Z,77.10
2018-04-29T18:51:26.039Z,77.80
2018-04-29T18:53:59.086Z,77.90
2018-04-29T18:56:33.013Z,77.70
2018-04-29T18:59:07.347Z,77.70
2018-04-29T19:01:41.980Z,78.10
2018-04-29T19:04:15.259Z,78.10
2018-04-29T19:06:48.758Z,78.30
2018-04-29T19:09:22.171Z,78.20
2018-04-29T19:11:55.483Z,78.10
2018-04-29T19:14:29.969Z,78.30
2018-04-29T19:17:03.833Z,78.30
2018-04-29T19:19:37.065Z,78.50
2018-04-29T19:22:10.567Z,78.70
2018-04-29T19:24:43.718Z,78.80
2018-04-29T19:27:16.428Z,79.10
2018-04-29T19:29:49.823Z,79.70
2018-04-29T19:32:23.099Z,79.60
2018-04-29T19:34:56.338Z,79.40
2018-04-29T19:37:30.663Z,79.50
2018-04-29T19:40:03.941Z,79.50
2018-04-29T19:42:36.886Z,79.40
2018-04-29T19:45:09.997Z,79.50
2018-04-29T19:47:43.005Z,80.10
2018-04-29T19:50:16.664Z,80.60
2018-04-29T19:52:50.069Z,80.40
2018-04-29T19:55:24.137Z,79.40
2018-04-29T19:57:56.931Z,79.40
2018-04-29T20:00:35.985Z,80.60
2018-04-29T20:03:08.679Z,80.40
2018-04-29T20:05:41.958Z,80.60
2018-04-29T20:08:14.802Z,81.30
2018-04-29T20:10:47.639Z,81.40
2018-04-29T20:13:20.460Z,81.80
2018-04-29T20:15:53.841Z,82.60
2018-04-29T20:18:27.541Z,82.40
2018-04-29T20:21:00.429Z,83.10
2018-04-29T20:23:33.375Z,83.70
2018-04-29T20:26:07.122Z,85.50
2018-04-29T20:28:41.320Z,86.10
2018-04-29T20:31:15.282Z,86.00
2018-04-29T20:33:48.185Z,86.70
2018-04-29T20:36:21.260Z,86.60
2018-04-29T20:38:55.142Z,86.90
2018-04-29T20:41:28.923Z,86.80
2018-04-29T20:44:01.903Z,86.90
2018-04-29T20:46:34.602Z,86.70
2018-04-29T20:49:07.353Z,86.30
2018-04-29T20:51:41.195Z,86.30
2018-04-29T20:54:14.051Z,86.30
2018-04-29T20:56:46.994Z,86.20
2018-04-29T20:59:20.831Z,86.30
2018-04-29T21:01:53.566Z,86.40
2018-04-29T21:04:27.954Z,86.60
2018-04-29T21:07:01.785Z,86.80
2018-04-29T21:09:34.708Z,86.80
2018-04-29T21:12:07.822Z,87.20
2018-04-29T21:14:41.212Z,86.90
2018-04-29T21:17:14.149Z,86.90
2018-04-29T21:19:46.747Z,86.70
2018-04-29T21:22:19.747Z,86.40
2018-04-29T21:24:53.327Z,84.90
2018-04-29T21:27:25.975Z,85.30
2018-04-29T21:29:58.775Z,84.80
2018-04-29T21:32:31.572Z,83.40
2018-04-29T21:35:05.674Z,80.10
2018-04-29T21:37:38.920Z,80.00
2018-04-29T21:40:12.586Z,77.30
2018-04-29T21:42:45.561Z,77.20
2018-04-29T21:45:18.668Z,77.00
2018-04-29T21:47:51.530Z,77.20
2018-04-29T21:50:24.355Z,76.80
2018-04-29T21:52:57.299Z,75.60
2018-04-29T21:55:30.020Z,74.20
2018-04-29T21:58:03.845Z,73.90
2018-04-29T22:00:36.862Z,73.90
2018-04-29T22:03:10.234Z,74.20
2018-04-29T22:05:44.237Z,73.50
2018-04-29T22:08:17.502Z,73.50
2018-04-29T22:10:50.176Z,73.30
2018-04-29T22:13:23.097Z,74.00
2018-04-29T22:15:56.602Z,74.20
2018-04-29T22:18:30.615Z,75.10
2018-04-29T22:21:03.103Z,75.10
2018-04-29T22:23:36.358Z,74.50
2018-04-29T22:26:09.122Z,74.40
2018-04-29T22:28:43.064Z,74.80
2018-04-29T22:31:15.760Z,74.80
2018-04-29T22:33:49.093Z,75.40
2018-04-29T22:36:22.211Z,75.40
2018-04-29T22:38:55.047Z,76.00
2018-04-29T22:41:28.016Z,77.10
2018-04-29T22:44:00.994Z,78.90
2018-04-29T22:46:33.782Z,78.30
2018-04-29T22:49:06.384Z,79.20
2018-04-29T22:51:39.104Z,79.00
2018-04-29T22:54:12.108Z,79.40
2018-04-29T22:56:44.950Z,79.90
2018-04-29T22:59:18.542Z,80.50
2018-04-29T23:01:51.384Z,80.40
2018-04-29T23:04:24.973Z,81.00
2018-04-29T23:06:57.989Z,80.90
2018-04-29T23:09:30.744Z,81.30
2018-04-29T23:12:03.609Z,81.50
2018-04-29T23:14:37.153Z,81.70
2018-04-29T23:17:10.676Z,81.50
2018-04-29T23:19:43.713Z,81.50
2018-04-29T23:22:16.820Z,81.70
2018-04-29T23:24:50.010Z,81.80
2018-04-29T23:27:23.393Z,81.80
2018-04-29T23:29:56.494Z,81.80
2018-04-29T23:32:29.007Z,81.90
2018-04-29T23:35:02.414Z,81.80
2018-04-29T23:37:35.058Z,81.80
2018-04-29T23:40:08.428Z,82.00
2018-04-29T23:42:41.010Z,82.20
2018-04-29T23:45:13.752Z,82.50
2018-04-29T23:47:46.772Z,81.60
2018-04-29T23:50:19.648Z,81.20
2018-04-29T23:52:52.747Z,79.80
2018-04-29T23:55:26.130Z,79.10
2018-04-29T23:57:59.558Z,77.70
